createdAt,value
2023-03-21T00:01:18.359Z,55.10
2023-03-21T00:03:51.662Z,55.80
2023-03-21T00:06:21.590Z,55.10
2023-03-21T00:08:50.969Z,55.10
2023-03-21T00:11:17.904Z,55.10
2023-03-21T00:13:47.493Z,55.10
2023-03-21T00:16:29.837Z,55.10
2023-03-21T00:19:03.179Z,55.10
2023-03-21T00:22:03.684Z,55.10
2023-03-21T00:24:19.340Z,55.10
2023-03-21T00:26:52.557Z,55.70
2023-03-21T00:29:19.718Z,55.10
2023-03-21T00:31:49.378Z,55.10
2023-03-21T00:34:27.024Z,55.00
2023-03-21T00:37:05.628Z,55.10
2023-03-21T00:39:35.216Z,55.10
2023-03-21T00:42:04.657Z,55.00
2023-03-21T00:44:36.975Z,55.10
2023-03-21T00:47:07.766Z,55.00
2023-03-21T00:49:35.283Z,55.00
2023-03-21T00:52:15.296Z,55.00
2023-03-21T00:54:47.687Z,55.00
2023-03-21T00:57:21.985Z,55.00
2023-03-21T00:59:51.238Z,55.10
2023-03-21T01:02:22.911Z,55.10
2023-03-21T01:04:58.203Z,55.20
2023-03-21T01:07:27.294Z,55.20
2023-03-21T01:09:54.237Z,55.30
2023-03-21T01:12:21.247Z,55.30
2023-03-21T01:14:51.227Z,55.30
2023-03-21T01:17:21.784Z,55.40
2023-03-21T01:19:52.374Z,55.50
2023-03-21T01:22:22.522Z,55.60
2023-03-21T01:24:55.448Z,55.70
2023-03-21T01:27:27.431Z,55.70
2023-03-21T01:29:54.432Z,55.70
2023-03-21T01:32:21.788Z,55.80
2023-03-21T01:34:49.442Z,55.80
2023-03-21T01:37:23.138Z,55.90
2023-03-21T01:39:50.254Z,56.00
2023-03-21T01:42:20.420Z,56.00
2023-03-21T01:45:03.154Z,56.00
2023-03-21T01:47:30.297Z,56.30
2023-03-21T01:50:02.367Z,56.30
2023-03-21T01:52:38.293Z,56.40
2023-03-21T01:55:12.470Z,56.50
2023-03-21T01:58:04.934Z,56.50
2023-03-21T02:00:36.726Z,56.60
2023-03-21T02:03:17.046Z,56.60
2023-03-21T02:05:51.976Z,56.70
2023-03-21T02:08:38.124Z,56.70
2023-03-21T02:11:08.307Z,56.60
2023-03-21T02:13:38.164Z,56.60
2023-03-21T02:16:24.864Z,56.50
2023-03-21T02:19:32.793Z,56.60
2023-03-21T02:22:43.714Z,56.60
2023-03-21T02:25:27.538Z,56.50
2023-03-21T02:27:58.680Z,56.40
2023-03-21T02:31:07.442Z,56.30
2023-03-21T02:34:25.910Z,56.60
2023-03-21T02:37:03.225Z,56.60
2023-03-21T02:39:51.003Z,56.60
2023-03-21T02:42:34.932Z,56.60
2023-03-21T02:45:21.195Z,56.70
2023-03-21T02:48:01.234Z,56.60
2023-03-21T02:50:41.920Z,56.70
2023-03-21T02:53:11.915Z,56.60
2023-03-21T02:55:43.092Z,56.60
2023-03-21T02:58:16.727Z,56.70
2023-03-21T03:00:47.546Z,56.70
2023-03-21T03:03:27.995Z,56.80
2023-03-21T03:06:22.359Z,56.90
2023-03-21T03:09:22.951Z,57.00
2023-03-21T03:12:05.646Z,56.90
2023-03-21T03:15:02.170Z,57.00
2023-03-21T03:17:57.253Z,57.00
2023-03-21T03:21:01.180Z,57.00
2023-03-21T03:23:44.600Z,57.20
2023-03-21T03:26:29.687Z,57.10
2023-03-21T03:29:06.415Z,57.10
2023-03-21T03:31:49.155Z,57.20
2023-03-21T03:34:22.604Z,57.30
2023-03-21T03:36:57.299Z,57.20
2023-03-21T03:39:34.643Z,57.20
2023-03-21T03:42:21.788Z,57.20
2023-03-21T03:44:56.159Z,57.20
2023-03-21T03:47:56.422Z,57.20
2023-03-21T03:50:54.310Z,57.30
2023-03-21T03:53:28.675Z,57.40
2023-03-21T03:55:56.664Z,57.20
2023-03-21T03:58:36.198Z,57.20
2023-03-21T04:01:12.652Z,57.20
2023-03-21T04:03:49.723Z,57.30
2023-03-21T04:06:18.063Z,57.30
2023-03-21T04:08:47.132Z,57.30
2023-03-21T04:11:18.123Z,57.30
2023-03-21T04:13:49.537Z,57.20
2023-03-21T04:16:16.445Z,57.20
2023-03-21T04:18:43.351Z,57.20
2023-03-21T04:21:13.510Z,57.20
2023-03-21T04:23:41.405Z,57.10
2023-03-21T04:26:09.158Z,57.10
2023-03-21T04:28:39.790Z,57.00
2023-03-21T04:31:22.724Z,57.00
2023-03-21T04:33:55.882Z,57.10
2023-03-21T04:36:28.701Z,57.10
2023-03-21T04:39:01.480Z,57.70
2023-03-21T04:41:29.727Z,57.00
2023-03-21T04:43:56.788Z,57.00
2023-03-21T04:46:24.251Z,57.00
2023-03-21T04:48:55.775Z,57.10
2023-03-21T04:51:24.906Z,57.10
2023-03-21T04:53:52.558Z,57.10
2023-03-21T04:56:19.557Z,57.10
2023-03-21T04:58:46.455Z,57.10
2023-03-21T05:01:20.158Z,57.10
2023-03-21T05:03:51.870Z,57.10
2023-03-21T05:06:21.498Z,57.10
2023-03-21T05:08:48.388Z,57.20
2023-03-21T05:11:15.576Z,57.20
2023-03-21T05:13:42.483Z,57.30
2023-03-21T05:16:12.146Z,57.30
2023-03-21T05:18:39.268Z,57.30
2023-03-21T05:21:10.442Z,57.40
2023-03-21T05:23:42.522Z,57.40
2023-03-21T05:26:12.620Z,57.40
2023-03-21T05:28:40.019Z,57.50
2023-03-21T05:31:08.051Z,57.50
2023-03-21T05:33:35.253Z,57.50
2023-03-21T05:36:05.274Z,57.50
2023-03-21T05:38:34.525Z,57.50
2023-03-21T05:41:03.861Z,58.20
2023-03-21T05:43:30.729Z,57.60
2023-03-21T05:45:58.033Z,57.60
2023-03-21T05:48:25.234Z,57.60
2023-03-21T05:50:56.962Z,57.60
2023-03-21T05:53:23.875Z,57.70
2023-03-21T05:55:50.859Z,58.30
2023-03-21T05:58:22.341Z,57.60
2023-03-21T06:00:49.256Z,57.70
2023-03-21T06:03:16.681Z,57.70
2023-03-21T06:05:45.647Z,57.70
2023-03-21T06:08:14.741Z,57.70
2023-03-21T06:10:44.221Z,57.70
2023-03-21T06:13:11.145Z,57.70
2023-03-21T06:15:38.970Z,57.70
2023-03-21T06:18:06.076Z,57.80
2023-03-21T06:20:35.581Z,57.90
2023-03-21T06:23:05.247Z,58.00
2023-03-21T06:25:32.224Z,58.20
2023-03-21T06:28:02.233Z,58.20
2023-03-21T06:30:31.471Z,58.30
2023-03-21T06:33:00.927Z,58.40
2023-03-21T06:35:32.313Z,58.40
2023-03-21T06:37:59.825Z,58.40
2023-03-21T06:40:26.731Z,58.40
2023-03-21T06:42:57.989Z,58.40
2023-03-21T06:45:25.677Z,58.40
2023-03-21T06:47:52.609Z,58.40
2023-03-21T06:50:21.950Z,58.40
2023-03-21T06:52:49.217Z,58.40
2023-03-21T06:55:16.268Z,58.40
2023-03-21T06:57:43.116Z,58.40
2023-03-21T07:00:11.451Z,58.50
2023-03-21T07:02:43.252Z,58.50
2023-03-21T07:05:12.765Z,58.50
2023-03-21T07:07:42.652Z,58.60
2023-03-21T07:10:10.649Z,58.70
2023-03-21T07:12:37.575Z,58.70
2023-03-21T07:15:06.960Z,58.90
2023-03-21T07:17:35.980Z,58.90
2023-03-21T07:20:07.307Z,58.60
2023-03-21T07:22:35.675Z,58.40
2023-03-21T07:25:05.990Z,58.10
2023-03-21T07:27:33.221Z,57.90
2023-03-21T07:30:02.889Z,57.70
2023-03-21T07:32:40.409Z,57.60
2023-03-21T07:35:18.301Z,57.60
2023-03-21T07:37:47.547Z,57.60
2023-03-21T07:40:18.014Z,57.50
2023-03-21T07:42:45.293Z,57.50
2023-03-21T07:45:16.510Z,57.50
2023-03-21T07:47:47.786Z,57.50
2023-03-21T07:50:18.395Z,57.60
2023-03-21T07:52:46.218Z,57.50
2023-03-21T07:55:17.286Z,57.50
2023-03-21T07:57:44.793Z,57.40
2023-03-21T08:00:22.885Z,57.20
2023-03-21T08:02:58.783Z,56.90
2023-03-21T08:05:34.642Z,56.80
2023-03-21T08:08:02.028Z,57.00
2023-03-21T08:10:31.413Z,57.20
2023-03-21T08:12:58.376Z,57.30
2023-03-21T08:15:28.018Z,57.20
2023-03-21T08:17:57.042Z,56.80
2023-03-21T08:20:27.446Z,56.40
2023-03-21T08:22:56.818Z,55.60
2023-03-21T08:25:26.188Z,55.20
2023-03-21T08:27:53.508Z,54.50
2023-03-21T08:30:26.934Z,53.70
2023-03-21T08:33:01.458Z,52.90
2023-03-21T08:35:29.747Z,52.10
2023-03-21T08:37:57.247Z,51.40
2023-03-21T08:40:24.368Z,50.60
2023-03-21T08:42:51.271Z,49.60
2023-03-21T08:45:18.602Z,48.80
2023-03-21T08:47:46.985Z,48.30
2023-03-21T08:50:19.387Z,47.60
2023-03-21T08:52:46.710Z,47.70
2023-03-21T08:55:16.596Z,46.80
2023-03-21T08:57:44.436Z,45.90
2023-03-21T09:00:15.289Z,45.20
2023-03-21T09:02:46.695Z,45.00
2023-03-21T09:05:13.883Z,45.10
2023-03-21T09:07:41.606Z,45.10
2023-03-21T09:10:20.521Z,44.80
2023-03-21T09:12:53.755Z,44.30
2023-03-21T09:15:24.938Z,44.30
2023-03-21T09:17:54.341Z,44.20
2023-03-21T09:20:33.015Z,43.80
2023-03-21T09:23:01.846Z,43.50
2023-03-21T09:25:32.678Z,43.50
2023-03-21T09:28:00.971Z,43.50
2023-03-21T09:30:29.467Z,43.60
2023-03-21T09:32:59.643Z,43.50
2023-03-21T09:35:29.610Z,43.30
2023-03-21T09:37:59.464Z,43.10
2023-03-21T09:41:08.931Z,43.10
2023-03-21T09:44:09.729Z,42.80
2023-03-21T09:47:17.266Z,42.80
2023-03-21T09:49:56.568Z,42.90
2023-03-21T09:52:58.754Z,43.70
2023-03-21T09:55:35.160Z,43.60
2023-03-21T09:58:20.286Z,43.40
2023-03-21T10:00:56.703Z,43.50
2023-03-21T10:03:35.150Z,43.40
2023-03-21T10:06:10.025Z,43.50
2023-03-21T10:08:45.134Z,43.40
2023-03-21T10:11:22.612Z,43.30
2023-03-21T10:14:07.496Z,43.20
2023-03-21T10:17:02.959Z,43.10
2023-03-21T10:19:34.446Z,43.50
2023-03-21T10:22:04.485Z,43.70
2023-03-21T10:24:37.028Z,43.50
2023-03-21T10:27:05.334Z,43.40
2023-03-21T10:29:43.264Z,43.50
2023-03-21T10:32:16.996Z,43.60
2023-03-21T10:37:27.441Z,43.80
2023-03-21T10:39:56.010Z,44.10
2023-03-21T10:42:30.883Z,44.10
2023-03-21T10:45:01.874Z,44.10
2023-03-21T10:47:34.705Z,43.90
2023-03-21T10:50:12.202Z,43.60
2023-03-21T10:53:00.610Z,43.90
2023-03-21T10:55:32.198Z,43.80
2023-03-21T10:58:25.068Z,44.00
2023-03-21T11:00:58.266Z,44.50
2023-03-21T11:03:37.732Z,44.30
2023-03-21T11:06:23.084Z,44.20
2023-03-21T11:09:00.541Z,44.10
2023-03-21T11:11:40.846Z,44.00
2023-03-21T11:14:25.832Z,44.20
2023-03-21T11:16:53.156Z,44.50
2023-03-21T11:19:33.011Z,44.50
2023-03-21T11:22:06.538Z,44.60
2023-03-21T11:24:35.551Z,44.50
2023-03-21T11:27:09.924Z,44.60
2023-03-21T11:29:43.265Z,44.80
2023-03-21T11:32:47.500Z,44.80
2023-03-21T11:35:20.760Z,44.60
2023-03-21T11:37:55.913Z,44.80
2023-03-21T11:40:30.951Z,44.50
2023-03-21T11:43:03.409Z,44.70
2023-03-21T11:45:33.766Z,44.80
2023-03-21T11:48:07.693Z,44.80
2023-03-21T11:50:47.691Z,44.80
2023-03-21T11:53:41.703Z,44.40
2023-03-21T11:56:36.461Z,44.40
2023-03-21T11:59:36.561Z,44.50
2023-03-21T12:02:51.567Z,44.20
2023-03-21T12:05:29.094Z,44.20
2023-03-21T12:08:37.612Z,44.40
2023-03-21T12:11:12.284Z,44.10
2023-03-21T12:13:52.341Z,44.20
2023-03-21T12:16:30.976Z,44.10
2023-03-21T12:19:12.996Z,44.20
2023-03-21T12:22:26.729Z,43.30
2023-03-21T12:25:12.853Z,43.40
2023-03-21T12:28:06.796Z,43.70
2023-03-21T12:31:21.688Z,43.70
2023-03-21T12:34:31.062Z,42.90
2023-03-21T12:37:38.074Z,42.40
2023-03-21T12:41:01.819Z,42.50
2023-03-21T12:43:39.857Z,42.80
2023-03-21T12:46:29.954Z,42.90
2023-03-21T12:49:09.050Z,42.50
2023-03-21T12:51:45.803Z,42.60
2023-03-21T12:54:32.030Z,42.60
2023-03-21T12:57:02.245Z,42.40
2023-03-21T12:59:39.582Z,42.60
2023-03-21T13:02:34.533Z,42.30
2023-03-21T13:05:36.311Z,42.40
2023-03-21T13:08:28.803Z,42.30
2023-03-21T13:11:01.361Z,42.90
2023-03-21T13:13:44.767Z,42.80
2023-03-21T13:16:21.821Z,42.70
2023-03-21T13:19:23.004Z,42.60
2023-03-21T13:22:26.939Z,42.30
2023-03-21T13:25:18.748Z,42.60
2023-03-21T13:28:01.237Z,42.30
2023-03-21T13:30:32.340Z,42.30
2023-03-21T13:33:14.697Z,42.50
2023-03-21T13:35:53.750Z,42.30
2023-03-21T13:38:28.727Z,42.50
2023-03-21T13:41:14.340Z,42.30
2023-03-21T13:44:05.849Z,42.00
2023-03-21T13:46:53.407Z,42.30
2023-03-21T13:49:36.822Z,42.40
2023-03-21T13:52:09.940Z,42.50
2023-03-21T13:54:56.728Z,42.60
2023-03-21T13:57:30.504Z,42.50
2023-03-21T14:00:30.701Z,42.50
2023-03-21T14:03:03.716Z,42.60
2023-03-21T14:05:31.761Z,42.80
2023-03-21T14:08:15.319Z,42.90
2023-03-21T14:10:49.284Z,43.10
2023-03-21T14:13:21.469Z,43.20
2023-03-21T14:15:59.267Z,43.00
2023-03-21T14:18:52.842Z,42.70
2023-03-21T14:21:26.443Z,42.60
2023-03-21T14:23:59.983Z,42.70
2023-03-21T14:26:38.084Z,43.20
2023-03-21T14:29:25.579Z,43.20
2023-03-21T14:31:56.949Z,43.40
2023-03-21T14:34:27.372Z,43.40
2023-03-21T14:36:59.101Z,43.50
2023-03-21T14:39:33.688Z,43.40
2023-03-21T14:42:13.645Z,43.30
2023-03-21T14:44:55.402Z,43.30
2023-03-21T14:47:32.208Z,43.30
2023-03-21T14:50:01.993Z,43.20
2023-03-21T14:52:33.352Z,43.50
2023-03-21T14:55:02.101Z,43.60
2023-03-21T14:57:35.444Z,43.70
2023-03-21T15:00:13.770Z,43.80
2023-03-21T15:02:43.331Z,43.90
2023-03-21T15:05:33.267Z,44.00
2023-03-21T15:08:07.168Z,44.00
2023-03-21T15:10:34.350Z,44.20
2023-03-21T15:13:17.026Z,44.40
2023-03-21T15:15:44.494Z,44.50
2023-03-21T15:18:19.824Z,44.70
2023-03-21T15:20:50.332Z,44.60
2023-03-21T15:23:41.675Z,44.70
2023-03-21T15:26:16.984Z,44.60
2023-03-21T15:28:47.487Z,44.60
2023-03-21T15:31:19.518Z,44.60
2023-03-21T15:33:51.949Z,44.60
2023-03-21T15:36:42.686Z,44.70
2023-03-21T15:39:19.818Z,44.90
2023-03-21T15:42:07.907Z,44.80
2023-03-21T15:44:35.535Z,44.80
2023-03-21T15:47:05.009Z,44.90
2023-03-21T15:49:34.274Z,44.90
2023-03-21T15:52:14.388Z,44.80
2023-03-21T15:54:50.909Z,44.90
2023-03-21T15:57:32.807Z,45.00
2023-03-21T16:00:28.030Z,44.80
2023-03-21T16:03:02.159Z,44.90
2023-03-21T16:05:33.819Z,44.90
2023-03-21T16:08:22.012Z,45.00
2023-03-21T16:10:51.272Z,45.20
2023-03-21T16:13:20.344Z,45.20
2023-03-21T16:15:49.353Z,45.10
2023-03-21T16:18:21.701Z,45.30
2023-03-21T16:20:50.125Z,45.30
2023-03-21T16:23:17.392Z,45.20
2023-03-21T16:25:44.836Z,45.20
2023-03-21T16:28:17.268Z,45.40
2023-03-21T16:30:45.085Z,45.40
2023-03-21T16:33:13.266Z,45.30
2023-03-21T16:35:42.856Z,45.30
2023-03-21T16:38:15.448Z,45.30
2023-03-21T16:40:43.588Z,45.30
2023-03-21T16:43:11.594Z,45.40
2023-03-21T16:45:41.985Z,45.50
2023-03-21T16:48:19.700Z,45.60
2023-03-21T16:50:53.144Z,45.80
2023-03-21T16:53:20.000Z,45.80
2023-03-21T16:55:49.928Z,45.70
2023-03-21T16:58:23.781Z,45.80
2023-03-21T17:00:50.739Z,45.90
2023-03-21T17:03:21.620Z,46.00
2023-03-21T17:05:55.779Z,46.00
2023-03-21T17:08:26.592Z,46.00
2023-03-21T17:10:55.823Z,46.00
2023-03-21T17:13:22.775Z,46.10
2023-03-21T17:15:49.664Z,46.10
2023-03-21T17:18:16.603Z,46.20
2023-03-21T17:20:43.476Z,46.30
2023-03-21T17:23:12.886Z,46.50
2023-03-21T17:25:42.262Z,46.60
2023-03-21T17:28:11.265Z,46.70
2023-03-21T17:30:41.483Z,46.80
2023-03-21T17:33:08.590Z,46.90
2023-03-21T17:35:35.642Z,47.00
2023-03-21T17:38:05.226Z,47.10
2023-03-21T17:40:32.507Z,47.30
2023-03-21T17:43:01.370Z,47.40
2023-03-21T17:45:28.566Z,47.70
2023-03-21T17:47:55.562Z,47.70
2023-03-21T17:50:31.617Z,47.70
2023-03-21T17:53:01.280Z,47.80
2023-03-21T17:55:31.086Z,47.90
2023-03-21T17:57:58.067Z,48.00
2023-03-21T18:00:29.199Z,48.00
2023-03-21T18:02:58.912Z,48.10
2023-03-21T18:05:28.027Z,48.20
2023-03-21T18:08:10.379Z,48.10
2023-03-21T18:10:42.459Z,48.10
2023-03-21T18:13:10.053Z,48.10
2023-03-21T18:15:44.054Z,48.10
2023-03-21T18:18:14.927Z,48.20
2023-03-21T18:20:51.735Z,48.40
2023-03-21T18:23:22.410Z,48.40
2023-03-21T18:25:49.955Z,48.50
2023-03-21T18:28:22.953Z,48.60
2023-03-21T18:31:09.681Z,48.70
2023-03-21T18:33:40.991Z,48.60
2023-03-21T18:36:13.854Z,48.80
2023-03-21T18:38:43.523Z,48.90
2023-03-21T18:41:15.054Z,48.90
2023-03-21T18:44:00.995Z,49.00
2023-03-21T18:46:32.505Z,49.10
2023-03-21T18:49:19.822Z,49.20
2023-03-21T18:51:47.067Z,49.20
2023-03-21T18:54:14.831Z,49.40
2023-03-21T18:59:36.310Z,49.50
2023-03-21T19:02:06.511Z,49.40
2023-03-21T19:04:34.256Z,49.60
2023-03-21T19:07:05.794Z,49.50
2023-03-21T19:09:58.120Z,49.50
2023-03-21T19:12:24.312Z,49.50
2023-03-21T19:14:53.774Z,49.60
2023-03-21T19:18:23.156Z,49.80
2023-03-21T19:20:14.057Z,49.90
2023-03-21T19:22:41.370Z,50.00
2023-03-21T19:25:10.482Z,50.10
2023-03-21T19:27:39.163Z,50.20
2023-03-21T19:30:15.225Z,50.40
2023-03-21T19:32:44.157Z,50.30
2023-03-21T19:35:11.558Z,50.30
2023-03-21T19:37:40.736Z,50.50
2023-03-21T19:40:11.299Z,50.50
2023-03-21T19:42:43.011Z,50.60
2023-03-21T19:45:13.024Z,50.60
2023-03-21T19:47:40.079Z,50.70
2023-03-21T19:53:01.624Z,50.70
2023-03-21T19:55:29.183Z,50.80
2023-03-21T19:57:56.229Z,50.70
2023-03-21T20:00:26.188Z,50.80
2023-03-21T20:02:58.639Z,50.70
2023-03-21T20:05:29.293Z,50.80
2023-03-21T20:07:57.353Z,50.80
2023-03-21T20:10:28.217Z,50.80
2023-03-21T20:12:57.733Z,50.80
2023-03-21T20:15:26.738Z,50.80
2023-03-21T20:17:58.691Z,50.80
2023-03-21T20:20:28.189Z,50.90
2023-03-21T20:23:06.695Z,51.00
2023-03-21T20:25:38.788Z,51.00
2023-03-21T20:28:15.787Z,51.10
2023-03-21T20:30:49.626Z,51.10
2023-03-21T20:33:19.058Z,51.20
2023-03-21T20:38:37.420Z,51.20
2023-03-21T20:41:06.718Z,51.20
2023-03-21T20:44:28.181Z,52.00
2023-03-21T20:46:23.446Z,51.50
2023-03-21T20:48:52.959Z,51.50
2023-03-21T20:54:07.243Z,51.70
2023-03-21T20:56:34.709Z,51.80
2023-03-21T20:59:17.712Z,51.80
2023-03-21T21:01:51.094Z,52.00
2023-03-21T21:04:30.537Z,51.80
2023-03-21T21:07:06.223Z,51.80
2023-03-21T21:09:35.668Z,51.80
2023-03-21T21:12:07.130Z,51.80
2023-03-21T21:14:38.640Z,51.80
2023-03-21T21:17:24.471Z,51.90
2023-03-21T21:19:55.530Z,52.00
2023-03-21T21:22:28.306Z,52.00
2023-03-21T21:25:00.828Z,52.00
2023-03-21T21:27:28.543Z,52.10
2023-03-21T21:29:57.660Z,52.10
2023-03-21T21:32:24.843Z,52.10
2023-03-21T21:34:54.328Z,52.20
2023-03-21T21:37:22.654Z,52.20
2023-03-21T21:39:50.476Z,52.30
2023-03-21T21:42:19.983Z,52.30
2023-03-21T21:44:49.440Z,52.40
2023-03-21T21:47:16.348Z,52.60
2023-03-21T21:49:46.560Z,52.50
2023-03-21T21:52:24.160Z,52.60
2023-03-21T21:54:51.167Z,52.70
2023-03-21T21:57:19.042Z,52.70
2023-03-21T21:59:47.136Z,52.70
2023-03-21T22:02:14.325Z,52.70
2023-03-21T22:04:41.717Z,52.80
2023-03-21T22:07:14.426Z,52.90
2023-03-21T22:09:45.167Z,53.00
2023-03-21T22:12:15.058Z,53.00
2023-03-21T22:14:46.762Z,53.00
2023-03-21T22:17:16.322Z,53.00
2023-03-21T22:19:58.972Z,53.00
2023-03-21T22:22:34.312Z,53.00
2023-03-21T22:25:01.513Z,53.10
2023-03-21T22:27:28.617Z,53.00
2023-03-21T22:29:56.003Z,53.00
2023-03-21T22:32:23.110Z,53.00
2023-03-21T22:34:54.650Z,53.00
2023-03-21T22:37:21.752Z,53.00
2023-03-21T22:39:48.617Z,53.10
2023-03-21T22:42:15.555Z,53.00
2023-03-21T22:44:42.463Z,53.00
2023-03-21T22:47:13.458Z,53.00
2023-03-21T22:49:42.547Z,53.00
2023-03-21T22:52:11.137Z,53.00
2023-03-21T22:54:38.239Z,53.10
2023-03-21T22:57:08.545Z,53.10
2023-03-21T22:59:35.811Z,53.10
2023-03-21T23:02:03.069Z,53.20
2023-03-21T23:04:32.678Z,53.30
2023-03-21T23:06:59.564Z,53.30
2023-03-21T23:09:27.261Z,53.30
2023-03-21T23:11:54.622Z,53.40
2023-03-21T23:14:23.501Z,53.40
2023-03-21T23:16:54.959Z,53.50
2023-03-21T23:19:25.399Z,53.50
2023-03-21T23:21:52.347Z,53.50
2023-03-21T23:24:20.873Z,53.50
2023-03-21T23:26:47.888Z,53.50
2023-03-21T23:29:14.959Z,53.60
2023-03-21T23:31:41.939Z,53.60
2023-03-21T23:34:08.879Z,53.70
2023-03-21T23:36:36.711Z,53.60
2023-03-21T23:39:06.528Z,53.70
2023-03-21T23:41:36.001Z,53.70
2023-03-21T23:44:06.029Z,53.70
2023-03-21T23:46:33.250Z,53.70
2023-03-21T23:49:00.231Z,53.80
2023-03-21T23:51:27.406Z,53.90
2023-03-21T23:53:57.212Z,54.00
2023-03-21T23:56:27.528Z,54.00
2023-03-21T23:58:54.504Z,54.10
